SBCR/CMG METAR and TAF weather

Enter ICAO airport designator
Station Type Date Time Source
SBCR METAR 2019/06/16 21:00 UTC NOAA

SBCR 162100Z 08007KT CAVOK 30/19 Q1015


Station Type Date Time Source
SBCR Decoded METAR 2019/06/16 21:00 UTC NOAA

Corumba, Brazil (SBCR) 19-05S 057-30W
Jun 16, 2019 - 05:00 PM EDT / 2019.06.16 2100 UTC
Wind: from the E (080 degrees) at 8 MPH (7 KT):0
Visibility: greater than 7 mile(s):0
Temperature: 86 F (30 C)
Dew Point: 66 F (19 C)
Relative Humidity: 51%
Pressure (altimeter): 29.97 in. Hg (1015 hPa)
ob: SBCR 162100Z 08007KT CAVOK 30/19 Q1015
cycle: 21

Station Type Date Time Source
SBCR TAF 2019/06/17 06:12 UTC NOAA

TAF SBCR 170130Z 1706/1806 23005KT CAVOK TN22/1708Z TX30/1718Z
BECMG 1714/1716 08005KT 9999 FEW035
BECMG 1720/1722 CAVOK
RMK PDW

Example: see airport list